メインページ
METAR-TAF:

METAR-TAF

空港 :

トロント, オンタリオ州, カナダ

トロント・ピアソン国際空港

緯度: 43-40N, 経度: 079-38W, 海抜: 173m

現時点の気象観測

当レポートは56分前の11:00(UTC)に作成
西の風 3kt
気温 4°C
湿度 70%
気圧 1019 hPa
視程: 24.1km
高度25000ftの雲はほとんどない

METAR: CYYZ 231100Z 28003KT 15SM FEW250 04/M01 A3010 RMK CI1 CI TR SLP198

時間: 07:56 (11:56 UTC)

予報

当レポートは18分前の11:38(UTC)に作成
予報は23日の 12時(UTC)から 24日の 18時(UTC)まで有効
変向風 3kt
視程: 10km
晴天
23日の 14時(UTC)から 23日の 16時(UTC)まで徐々に
西の風 15kt
24日の 0000時(UTC)から
西/北西の風 10kt
視程: 10km
高度5000ftの雲は散在している
高度24000ftの千切れ雲あり
24日の 0200時(UTC)から
の風 10kt
視程: 10km
高度5000ftの千切れ雲あり
24日の 0600時(UTC)から
の風 6kt
視程: 10km
高度5000ftの雲は散在している
24日の 1200時(UTC)から
の風 10kt
視程: 10km
高度2000ftの千切れ雲あり

TAF: CYYZ 231138Z 2312/2418 VRB03KT P6SM SKC BECMG 2314/2316 26015KT FM240000 29010KT P6SM SCT050 BKN240 FM240200 35010KT P6SM BKN050 FM240600 36006KT P6SM SCT050 FM241200 08010KT P6SM BKN020 RMK NXT FCST BY 231500Z

4,000以上の空港の気象観測と天気予報(METAR報とTAF報)

利用可能な観測所は地図上に黄色い丸と赤い丸で示す。

丸の上にカーソルを重ねると観測所名を参照できる。

次にクリックすると気象観測と天気予報を参照できる。

マップの切り替え:黒色「×」印の緑ボタンをクリックして拡大、「-」印の緑ボタンをクリックして縮小、緑色の三角印をクリックして隣りの地図に切り替え


METAR-TAF: